Time;durP1;ratioP1;P1;durP2;ratioP2;P2;SDS_P1;SDS_P2;PMS_P1;PMS_P2;Temp;Humidity;BMP_temperature;BMP_pressure;BME280_temperature;BME280_humidity;BME280_pressure;Samples;Min_cycle;Max_cycle;Signal;HPM_P1;HPM_P2
2023/04/24 00:01:16;;;;;;;15.82;6.28;;;;;;;13.71;39.64;99438.53;5105102;28;20044;-48
2023/04/24 00:03:42;;;;;;;19.73;7.43;;;;;;;13.66;39.61;99435.31;5053069;28;20136;-48
2023/04/24 00:06:09;;;;;;;25.13;8.07;;;;;;;13.65;39.63;99432.81;5086550;28;20036;-52
2023/04/24 00:08:35;;;;;;;25.17;8.50;;;;;;;13.67;39.90;99439.63;5088606;28;20047;-53
2023/04/24 00:11:01;;;;;;;22.52;8.57;;;;;;;13.67;39.35;99437.00;5089039;28;20050;-49
2023/04/24 00:13:31;;;;;;;17.38;6.85;;;;;;;13.66;38.72;99435.31;5053207;28;20110;-47
2023/04/24 00:15:56;;;;;;;17.40;6.15;;;;;;;13.64;39.46;99434.56;5088944;28;20032;-52
2023/04/24 00:18:22;;;;;;;23.67;7.07;;;;;;;13.62;39.58;99436.41;5089097;28;20081;-48
2023/04/24 00:20:48;;;;;;;18.80;7.63;;;;;;;13.60;39.47;99438.25;5088463;28;20154;-46
2023/04/24 00:23:14;;;;;;;21.55;8.68;;;;;;;13.60;39.13;99430.44;5088014;28;20040;-51
2023/04/24 00:25:40;;;;;;;25.65;8.10;;;;;;;13.56;39.11;99432.31;5053572;28;20571;-49
2023/04/24 00:28:06;;;;;;;23.55;8.50;;;;;;;13.55;38.66;99432.44;5087379;28;20093;-47
2023/04/24 00:30:32;;;;;;;23.00;8.80;;;;;;;13.42;38.81;99423.50;5088728;28;20073;-50
2023/04/24 00:32:58;;;;;;;23.23;8.88;;;;;;;13.48;39.35;99428.41;5087390;28;20445;-48
2023/04/24 00:35:24;;;;;;;16.65;7.93;;;;;;;13.55;39.76;99442.88;5069273;28;20093;-50
2023/04/24 00:37:50;;;;;;;19.85;7.50;;;;;;;13.38;39.84;99414.13;5088134;28;20036;-50
2023/04/24 00:40:16;;;;;;;19.92;8.32;;;;;;;13.36;39.93;99411.59;5104354;28;20044;-49
2023/04/24 00:42:43;;;;;;;16.80;7.63;;;;;;;13.50;39.86;99431.81;5047426;28;20471;-54
2023/04/24 00:45:10;;;;;;;20.38;7.38;;;;;;;13.46;40.02;99436.31;5087035;28;20051;-54
2023/04/24 00:47:37;;;;;;;19.33;8.15;;;;;;;13.18;40.02;99390.78;5053686;28;20043;-54
2023/04/24 00:50:05;;;;;;;20.08;8.50;;;;;;;13.42;40.01;99434.78;5070461;28;20088;-55
2023/04/24 00:52:32;;;;;;;27.27;10.93;;;;;;;13.14;40.37;99390.06;5087435;28;20032;-52
2023/04/24 00:54:59;;;;;;;21.40;8.27;;;;;;;13.38;40.32;99435.88;5070664;28;20121;-50
2023/04/24 00:57:25;;;;;;;26.35;8.55;;;;;;;13.24;40.25;99417.41;5067857;28;20047;-53
2023/04/24 00:59:52;;;;;;;26.27;9.65;;;;;;;13.36;40.64;99442.06;5069321;28;20032;-55
2023/04/24 01:02:18;;;;;;;21.60;8.70;;;;;;;13.27;40.02;99426.88;5069307;28;20084;-53
2023/04/24 01:04:44;;;;;;;26.48;10.15;;;;;;;13.31;40.42;99437.09;5070307;28;20101;-52
2023/04/24 01:07:12;;;;;;;26.60;10.17;;;;;;;13.30;40.12;99429.31;5050606;28;20428;-52
2023/04/24 01:09:41;;;;;;;25.80;10.45;;;;;;;13.24;40.07;99430.47;5067911;28;20040;-50
2023/04/24 01:12:07;;;;;;;30.73;12.75;;;;;;;13.04;39.74;99410.53;5045054;28;20825;-49
2023/04/24 01:14:33;;;;;;;27.95;12.07;;;;;;;13.12;39.26;99433.69;5053129;28;20039;-53
2023/04/24 01:17:00;;;;;;;28.25;10.18;;;;;;;13.08;39.85;99437.34;5087682;28;20542;-50
2023/04/24 01:19:27;;;;;;;22.67;9.73;;;;;;;12.92;40.13;99402.47;5088361;28;20063;-47
2023/04/24 01:21:54;;;;;;;23.10;8.95;;;;;;;13.03;40.18;99421.06;5072389;28;20820;-50
2023/04/24 01:24:20;;;;;;;22.13;9.40;;;;;;;13.03;41.10;99432.31;5090648;28;20040;-48
2023/04/24 01:26:47;;;;;;;23.80;8.48;;;;;;;12.74;40.65;99396.38;5089852;28;20046;-49
2023/04/24 01:29:13;;;;;;;19.67;9.40;;;;;;;12.87;41.01;99428.78;5074291;28;20054;-47
2023/04/24 01:31:42;;;;;;;24.10;7.93;;;;;;;12.71;41.67;99410.41;5091956;28;20046;-49
2023/04/24 01:34:09;;;;;;;20.40;8.15;;;;;;;12.76;42.00;99432.81;5091407;28;20674;-50
2023/04/24 01:36:36;;;;;;;16.58;7.10;;;;;;;12.72;41.85;99432.09;5090839;28;20032;-49
2023/04/24 01:39:03;;;;;;;12.88;7.07;;;;;;;12.71;40.86;99428.69;5091807;28;20044;-46
2023/04/24 01:41:30;;;;;;;16.20;7.53;;;;;;;12.58;40.75;99409.28;5073180;28;20089;-47
2023/04/24 01:43:57;;;;;;;17.33;6.75;;;;;;;12.68;41.09;99428.81;5089505;28;20189;-49
2023/04/24 01:46:24;;;;;;;17.67;6.68;;;;;;;12.67;40.97;99421.88;5091977;28;20051;-51
2023/04/24 01:48:51;;;;;;;11.68;7.10;;;;;;;12.64;41.70;99426.41;5090747;28;20031;-50
2023/04/24 01:51:19;;;;;;;16.67;7.63;;;;;;;12.50;40.85;99403.59;5057405;28;20430;-50
2023/04/24 01:53:45;;;;;;;15.65;7.22;;;;;;;12.56;40.62;99413.72;5088548;28;20454;-46
2023/04/24 01:56:11;;;;;;;15.02;7.50;;;;;;;12.61;40.71;99416.13;5104611;28;20066;-49
2023/04/24 01:58:38;;;;;;;14.85;7.40;;;;;;;12.62;40.70;99418.66;5107060;28;20139;-50
2023/04/24 02:01:06;;;;;;;11.32;7.18;;;;;;;12.40;40.76;99386.69;5106898;28;20032;-48
2023/04/24 02:03:32;;;;;;;11.38;7.35;;;;;;;12.62;40.67;99417.78;5072689;28;20039;-49
2023/04/24 02:05:58;;;;;;;11.50;7.90;;;;;;;12.51;40.00;99397.44;5052460;28;20109;-51
2023/04/24 02:08:24;;;;;;;14.52;7.10;;;;;;;12.66;39.54;99419.38;5063868;28;20191;-45
2023/04/24 02:10:51;;;;;;;15.23;6.75;;;;;;;12.63;39.67;99422.09;5046301;28;20479;-50
2023/04/24 02:13:17;;;;;;;17.17;7.43;;;;;;;12.61;40.44;99429.19;5093308;28;20121;-51
2023/04/24 02:15:43;;;;;;;17.35;7.70;;;;;;;12.58;40.42;99418.88;5090652;28;20047;-55
2023/04/24 02:18:11;;;;;;;10.75;6.85;;;;;;;12.59;40.30;99417.97;5091463;28;20044;-51
2023/04/24 02:20:37;;;;;;;14.38;7.10;;;;;;;12.57;41.18;99423.22;5091181;28;20160;-54
2023/04/24 02:23:03;;;;;;;13.07;7.13;;;;;;;12.45;40.48;99399.50;5106819;28;20431;-51
2023/04/24 02:25:29;;;;;;;23.95;6.88;;;;;;;12.42;40.88;99403.09;5071306;28;20051;-46
2023/04/24 02:27:55;;;;;;;21.20;7.00;;;;;;;12.57;41.12;99425.00;5106801;28;20047;-47
2023/04/24 02:30:21;;;;;;;14.77;7.20;;;;;;;12.57;40.85;99428.44;5072993;28;20115;-52
2023/04/24 02:32:47;;;;;;;13.13;7.63;;;;;;;12.42;40.72;99400.47;5103444;28;20154;-49
2023/04/24 02:35:14;;;;;;;12.57;7.28;;;;;;;12.59;40.27;99428.38;5076794;28;20040;-49
2023/04/24 02:37:40;;;;;;;17.60;7.25;;;;;;;12.58;40.23;99424.94;5072799;28;20043;-48
2023/04/24 02:40:07;;;;;;;13.85;7.57;;;;;;;12.59;40.74;99431.84;5071380;28;20426;-49
2023/04/24 02:42:33;;;;;;;13.02;7.43;;;;;;;12.65;40.12;99433.31;5072763;28;20085;-49
2023/04/24 02:44:59;;;;;;;16.38;7.18;;;;;;;12.65;40.32;99431.56;5089576;28;20135;-48
2023/04/24 02:47:25;;;;;;;10.48;7.65;;;;;;;12.62;40.40;99429.06;5055244;28;20059;-46
2023/04/24 02:49:52;;;;;;;12.40;6.93;;;;;;;12.66;40.52;99435.88;5089395;28;20492;-51
2023/04/24 02:52:17;;;;;;;12.75;7.03;;;;;;;12.69;40.41;99440.06;5053712;28;20040;-47
2023/04/24 02:54:44;;;;;;;12.63;7.20;;;;;;;12.72;40.79;99439.91;5104416;28;20153;-47
2023/04/24 02:57:10;;;;;;;14.52;7.03;;;;;;;12.73;40.52;99445.06;5106363;28;20126;-48
2023/04/24 02:59:39;;;;;;;21.60;7.75;;;;;;;12.72;40.54;99443.38;5055634;28;20039;-50
2023/04/24 03:02:05;;;;;;;16.42;7.82;;;;;;;12.77;40.40;99450.16;5067208;28;20046;-48
2023/04/24 03:04:31;;;;;;;17.77;8.00;;;;;;;12.78;40.28;99446.63;5089400;28;20145;-48
2023/04/24 03:06:58;;;;;;;17.80;8.02;;;;;;;12.83;40.47;99442.88;5089865;28;20462;-50
2023/04/24 03:09:24;;;;;;;16.00;7.63;;;;;;;12.85;41.01;99448.03;5104449;28;20098;-48
2023/04/24 03:11:50;;;;;;;16.52;7.63;;;;;;;12.85;41.04;99443.66;5088476;28;20052;-47
2023/04/24 03:14:16;;;;;;;16.40;8.52;;;;;;;12.93;41.13;99451.09;5089422;28;20047;-50
2023/04/24 03:16:42;;;;;;;18.85;8.35;;;;;;;12.94;40.36;99447.59;5072102;28;20040;-53
2023/04/24 03:19:08;;;;;;;15.15;8.20;;;;;;;12.95;40.23;99439.69;5071018;28;20050;-51
2023/04/24 03:21:42;;;;;;;20.85;8.48;;;;;;;12.90;40.33;99426.03;5055575;28;20043;-48
2023/04/24 03:24:09;;;;;;;13.10;7.90;;;;;;;13.09;40.44;99454.69;5073102;28;20040;-49
2023/04/24 03:26:35;;;;;;;13.10;8.38;;;;;;;13.19;39.87;99460.34;5068631;28;20466;-48
2023/04/24 03:29:15;;;;;;;12.68;8.45;;;;;;;13.20;39.28;99454.19;5070255;28;20045;-51
2023/04/24 03:31:42;;;;;;;13.07;7.72;;;;;;;13.21;39.12;99450.66;5073763;28;20169;-48
2023/04/24 03:34:08;;;;;;;17.52;8.57;;;;;;;13.14;38.95;99431.84;5071228;28;20043;-48
2023/04/24 03:36:35;;;;;;;13.25;8.70;;;;;;;13.33;39.21;99458.75;5071839;28;20063;-50
2023/04/24 03:39:01;;;;;;;13.10;8.07;;;;;;;13.17;39.32;99428.25;5087983;28;20051;-47
2023/04/24 03:41:31;;;;;;;14.25;7.93;;;;;;;13.29;38.70;99449.41;5071728;28;20042;-45
2023/04/24 03:44:12;;;;;;;16.38;8.05;;;;;;;13.38;38.28;99461.13;5103923;28;20066;-48
2023/04/24 03:46:38;;;;;;;17.35;7.80;;;;;;;13.16;38.06;99416.97;5070767;28;20044;-49
2023/04/24 03:49:04;;;;;;;15.98;7.85;;;;;;;13.49;38.10;99464.06;5089249;28;20419;-49
2023/04/24 03:51:35;;;;;;;13.02;7.95;;;;;;;13.41;37.89;99447.91;5105204;28;20519;-51
2023/04/24 03:54:10;;;;;;;14.20;7.53;;;;;;;13.58;37.61;99464.44;5039680;28;20046;-51
2023/04/24 03:56:39;;;;;;;16.23;7.50;;;;;;;13.63;37.53;99472.06;5038596;28;20457;-51
2023/04/24 03:59:05;;;;;;;13.77;7.90;;;;;;;13.66;37.66;99471.88;5054741;28;20438;-51
2023/04/24 04:01:31;;;;;;;17.35;8.68;;;;;;;13.72;37.50;99471.59;5070392;28;20062;-49
2023/04/24 04:04:06;;;;;;;14.95;7.63;;;;;;;13.73;37.04;99459.38;5099605;28;20301;-48
2023/04/24 04:06:32;;;;;;;13.95;7.68;;;;;;;13.81;37.04;99465.91;5050872;28;20043;-48
2023/04/24 04:09:00;;;;;;;14.50;7.22;;;;;;;13.91;37.04;99474.97;5103569;28;20173;-45
2023/04/24 04:11:26;;;;;;;13.95;7.13;;;;;;;14.00;37.06;99476.25;5071100;28;20047;-47
2023/04/24 04:13:52;;;;;;;14.52;7.68;;;;;;;14.02;36.75;99481.41;5087325;28;20056;-45
2023/04/24 04:16:20;;;;;;;12.50;7.57;;;;;;;14.09;36.38;99474.94;5053790;28;20036;-52
2023/04/24 04:18:48;;;;;;;15.48;7.35;;;;;;;14.04;36.21;99462.09;5070567;28;20796;-52
2023/04/24 04:21:15;;;;;;;14.20;7.05;;;;;;;14.17;36.12;99476.25;5054364;28;20043;-45
2023/04/24 04:23:41;;;;;;;10.50;6.90;;;;;;;14.27;36.09;99476.59;5036597;28;20032;-53
2023/04/24 04:26:18;;;;;;;15.38;6.97;;;;;;;14.35;36.17;99475.25;5087711;28;20884;-53
2023/04/24 04:29:00;;;;;;;16.88;7.07;;;;;;;14.45;35.68;99477.41;5070749;28;20043;-48
2023/04/24 04:31:27;;;;;;;10.60;6.95;;;;;;;14.49;35.70;99471.94;5086890;28;20130;-51
2023/04/24 04:33:55;;;;;;;15.20;7.22;;;;;;;14.53;35.28;99470.84;5104161;28;20139;-51
2023/04/24 04:36:21;;;;;;;12.65;7.35;;;;;;;14.61;35.24;99486.13;5103932;28;20040;-49
2023/04/24 04:38:54;;;;;;;15.27;6.97;;;;;;;14.64;35.03;99481.59;5068669;28;20048;-48
2023/04/24 04:41:44;;;;;;;11.93;6.97;;;;;;;14.58;34.84;99461.00;5073870;28;20043;-50
2023/04/24 04:44:10;;;;;;;13.82;7.53;;;;;;;14.74;34.92;99480.16;5087695;28;20055;-48
2023/04/24 04:46:38;;;;;;;9.43;6.57;;;;;;;14.85;34.71;99484.81;5050846;28;20042;-55
2023/04/24 04:49:24;;;;;;;17.60;7.68;;;;;;;14.90;34.54;99492.41;5056543;28;20051;-48
2023/04/24 04:51:51;;;;;;;17.20;7.40;;;;;;;14.92;34.12;99491.38;5086819;28;20566;-48
2023/04/24 04:54:18;;;;;;;11.90;6.68;;;;;;;14.97;34.11;99486.72;5052875;28;20040;-52
2023/04/24 04:56:44;;;;;;;14.43;7.35;;;;;;;15.04;34.12;99487.25;5069571;28;20028;-52
2023/04/24 04:59:10;;;;;;;16.02;7.50;;;;;;;15.15;33.86;99488.34;5091161;28;20055;-50
2023/04/24 05:01:38;;;;;;;13.05;6.80;;;;;;;15.12;33.71;99474.59;5104118;28;20043;-53
2023/04/24 05:04:06;;;;;;;16.65;7.35;;;;;;;15.26;33.72;99487.72;5048295;28;20082;-51
2023/04/24 05:06:33;;;;;;;14.43;6.95;;;;;;;15.27;33.62;99474.56;5102017;28;20183;-52
2023/04/24 05:08:59;;;;;;;19.13;7.90;;;;;;;15.37;33.59;99479.28;5053225;28;20047;-51
2023/04/24 05:11:45;;;;;;;12.65;7.47;;;;;;;15.20;33.42;99444.41;5086354;28;20048;-51
2023/04/24 05:14:12;;;;;;;17.35;7.82;;;;;;;15.55;33.29;99486.94;5103635;28;20075;-49
2023/04/24 05:16:40;;;;;;;10.75;7.40;;;;;;;15.67;33.05;99496.72;5102784;28;20530;-51
2023/04/24 05:19:08;;;;;;;14.18;6.95;;;;;;;15.77;32.69;99493.56;5083902;28;20043;-53
2023/04/24 05:21:39;;;;;;;14.05;7.45;;;;;;;15.70;32.90;99476.50;5073328;28;20028;-55
2023/04/24 05:24:06;;;;;;;13.27;6.88;;;;;;;15.74;32.45;99449.19;5103405;28;20039;-47
2023/04/24 05:26:44;;;;;;;15.05;6.60;;;;;;;16.05;32.28;99489.22;5087204;28;20040;-51
2023/04/24 05:29:11;;;;;;;16.55;7.18;;;;;;;16.15;32.16;99488.66;5049906;28;20102;-52
2023/04/24 05:31:37;;;;;;;11.38;7.18;;;;;;;16.31;32.07;99495.53;5093075;28;20439;-52
2023/04/24 05:34:05;;;;;;;12.82;6.60;;;;;;;16.45;32.20;99495.50;5101664;28;20566;-49
2023/04/24 05:36:31;;;;;;;21.30;7.05;;;;;;;16.70;31.98;99499.25;5083062;28;20112;-52
2023/04/24 05:38:57;;;;;;;16.58;7.10;;;;;;;16.67;31.76;99478.47;5113428;28;20047;-52
2023/04/24 05:41:23;;;;;;;12.40;6.70;;;;;;;16.91;31.41;99492.66;5085776;28;20032;-51
2023/04/24 05:43:49;;;;;;;15.48;7.13;;;;;;;17.02;31.53;99484.13;5085606;28;20512;-51
2023/04/24 05:46:16;;;;;;;13.60;6.30;;;;;;;17.16;31.16;99497.22;5087836;28;20423;-53
2023/04/24 05:48:42;;;;;;;20.20;6.85;;;;;;;16.87;30.86;99447.41;5097637;28;20048;-50
2023/04/24 05:51:09;;;;;;;13.60;6.85;;;;;;;17.07;31.04;99471.53;5083955;28;20043;-47
2023/04/24 05:53:35;;;;;;;13.75;5.90;;;;;;;17.26;30.73;99488.66;5054822;28;20040;-52
2023/04/24 05:56:01;;;;;;;15.30;6.72;;;;;;;17.22;30.63;99478.41;5059165;28;20573;-47
2023/04/24 05:58:27;;;;;;;9.68;6.68;;;;;;;17.32;30.56;99488.22;5087729;28;20039;-50
2023/04/24 06:00:55;;;;;;;12.05;6.70;;;;;;;17.40;30.41;99497.41;5073156;28;20044;-48
2023/04/24 06:03:21;;;;;;;12.73;5.97;;;;;;;17.44;30.14;99483.97;5086946;28;20503;-49
2023/04/24 06:05:52;;;;;;;8.93;5.43;;;;;;;17.53;30.23;99480.75;5102995;28;20086;-53
2023/04/24 06:08:20;;;;;;;14.18;6.65;;;;;;;17.58;29.77;99469.94;5099834;28;20701;-48
2023/04/24 06:10:47;;;;;;;13.60;6.22;;;;;;;17.94;29.92;99483.28;5077021;28;20039;-51
2023/04/24 06:13:13;;;;;;;15.23;7.22;;;;;;;18.21;29.33;99470.03;5064282;28;20044;-48
2023/04/24 06:15:46;;;;;;;10.10;6.30;;;;;;;19.05;28.43;99486.81;5072694;28;20113;-51
2023/04/24 06:18:19;;;;;;;11.02;6.40;;;;;;;19.86;27.40;99488.78;5086488;28;20074;-50
2023/04/24 06:20:47;;;;;;;14.07;5.85;;;;;;;20.61;26.39;99460.09;5071613;28;20036;-50
2023/04/24 06:23:13;;;;;;;12.30;6.80;;;;;;;21.68;25.43;99494.56;5056462;28;20427;-53
2023/04/24 06:25:39;;;;;;;12.55;6.15;;;;;;;22.26;24.34;99493.16;5071048;28;20044;-51
2023/04/24 06:28:05;;;;;;;11.38;6.40;;;;;;;22.91;23.97;99495.44;5054624;28;20040;-53
2023/04/24 06:30:31;;;;;;;14.75;6.75;;;;;;;23.91;23.13;99488.97;5074801;28;20047;-52
2023/04/24 06:32:57;;;;;;;10.63;6.28;;;;;;;24.66;22.32;99504.03;5079305;28;20487;-50
2023/04/24 06:35:23;;;;;;;12.50;6.43;;;;;;;25.31;21.17;99502.16;5066666;28;20135;-50
2023/04/24 06:37:50;;;;;;;11.80;6.10;;;;;;;25.60;20.71;99475.34;5101950;28;20100;-47
2023/04/24 06:40:18;;;;;;;12.60;6.47;;;;;;;26.38;19.97;99501.09;5099988;28;20046;-51
2023/04/24 06:42:46;;;;;;;10.02;5.60;;;;;;;26.93;19.38;99498.06;5092649;28;20032;-49
2023/04/24 06:45:12;;;;;;;7.85;5.20;;;;;;;26.59;19.14;99487.38;5065802;28;20056;-53
2023/04/24 06:47:38;;;;;;;11.75;6.00;;;;;;;26.48;18.89;99493.00;5098466;28;20126;-52
2023/04/24 06:50:04;;;;;;;14.02;6.13;;;;;;;26.76;18.67;99490.94;5080514;28;20638;-53
2023/04/24 06:52:34;;;;;;;10.95;5.50;;;;;;;27.60;18.29;99497.06;5110865;27;20143;-51
2023/04/24 06:55:02;;;;;;;10.20;5.93;;;;;;;28.25;17.59;99505.09;5056703;28;20040;-52
2023/04/24 06:57:31;;;;;;;9.90;5.00;;;;;;;27.75;17.79;99502.56;5104387;28;20050;-50
2023/04/24 06:59:57;;;;;;;11.77;5.10;;;;;;;28.08;17.55;99498.06;5111265;28;20043;-48
2023/04/24 07:02:23;;;;;;;12.07;5.78;;;;;;;28.41;17.66;99498.88;5092512;28;20035;-51
2023/04/24 07:04:49;;;;;;;12.43;5.18;;;;;;;29.18;16.77;99499.94;5103311;28;20036;-51
2023/04/24 07:07:16;;;;;;;8.88;5.22;;;;;;;29.46;16.79;99507.34;5090069;28;20044;-54
2023/04/24 07:09:42;;;;;;;10.43;5.63;;;;;;;29.09;16.58;99501.00;5080461;28;20454;-53
2023/04/24 07:12:10;;;;;;;6.82;4.43;;;;;;;29.32;16.45;99509.91;5069807;28;20044;-51
2023/04/24 07:14:37;;;;;;;9.85;4.85;;;;;;;29.27;16.35;99512.25;5115788;27;20118;-49
2023/04/24 07:17:06;;;;;;;8.40;4.68;;;;;;;29.00;16.24;99506.38;5101320;28;20086;-47
2023/04/24 07:19:35;;;;;;;12.43;4.78;;;;;;;29.18;15.93;99511.47;5093114;28;20093;-50
2023/04/24 07:22:02;;;;;;;7.95;4.07;;;;;;;29.57;15.63;99519.47;5085818;28;20043;-49
2023/04/24 07:24:28;;;;;;;12.02;5.35;;;;;;;29.59;15.73;99514.75;5082342;28;20032;-52
2023/04/24 07:26:55;;;;;;;10.15;5.15;;;;;;;30.18;15.18;99480.94;5077045;28;20071;-49
2023/04/24 07:29:21;;;;;;;10.57;5.70;;;;;;;31.18;14.63;99501.97;5081974;28;20097;-53
2023/04/24 07:31:47;;;;;;;11.13;5.70;;;;;;;32.46;13.95;99508.13;5098572;28;20047;-53
2023/04/24 07:34:13;;;;;;;10.27;5.00;;;;;;;32.65;13.73;99504.75;5098475;28;20040;-50
2023/04/24 07:36:39;;;;;;;8.15;4.43;;;;;;;32.32;13.76;99508.03;5081453;28;20388;-56
2023/04/24 07:39:05;;;;;;;8.65;4.78;;;;;;;32.33;13.37;99482.78;5081315;28;20031;-54
2023/04/24 07:41:32;;;;;;;7.47;4.40;;;;;;;31.13;13.85;99502.53;5089315;28;20042;-49
2023/04/24 07:43:58;;;;;;;8.68;4.38;;;;;;;31.03;14.24;99499.31;5085109;28;20538;-53
2023/04/24 07:46:24;;;;;;;6.82;4.72;;;;;;;31.68;13.72;99511.81;5073084;28;20097;-54
2023/04/24 07:48:50;;;;;;;8.10;4.55;;;;;;;32.74;13.14;99509.78;5070273;28;20126;-50
2023/04/24 07:51:17;;;;;;;9.43;4.70;;;;;;;32.93;12.66;99513.59;5085557;28;20549;-58
2023/04/24 07:53:43;;;;;;;6.30;4.30;;;;;;;32.29;13.36;99475.31;5095108;28;20039;-59
2023/04/24 07:56:09;;;;;;;9.25;4.45;;;;;;;33.68;12.39;99504.53;5087885;28;20035;-57
2023/04/24 07:58:35;;;;;;;8.20;4.10;;;;;;;33.14;12.27;99513.47;5070514;28;20170;-59
2023/04/24 08:01:01;;;;;;;5.88;4.47;;;;;;;32.09;13.02;99498.50;5079786;28;20039;-59
2023/04/24 08:03:30;;;;;;;8.88;4.20;;;;;;;32.23;12.65;99506.53;5096218;28;20430;-54
2023/04/24 08:05:56;;;;;;;4.50;3.95;;;;;;;32.97;12.30;99498.72;5074354;28;20040;-58
2023/04/24 08:08:23;;;;;;;8.75;4.10;;;;;;;34.16;11.93;99496.25;5065695;28;20039;-57
2023/04/24 08:10:49;;;;;;;10.13;5.72;;;;;;;34.49;11.77;99497.06;5087527;28;20083;-60
2023/04/24 08:13:15;;;;;;;7.63;4.70;;;;;;;34.59;11.52;99486.66;5110291;27;20042;-58
2023/04/24 08:15:41;;;;;;;7.78;4.68;;;;;;;34.23;11.46;99475.50;5093382;28;20036;-58
2023/04/24 08:18:07;;;;;;;5.65;4.20;;;;;;;33.81;11.83;99485.66;5090685;28;20079;-60
2023/04/24 08:20:33;;;;;;;6.90;3.78;;;;;;;32.02;12.54;99484.19;5075509;28;20044;-58
2023/04/24 08:22:59;;;;;;;5.20;3.95;;;;;;;30.09;13.59;99474.00;5073443;28;20089;-59
2023/04/24 08:25:25;;;;;;;6.15;4.30;;;;;;;28.89;14.65;99468.47;5096279;28;20519;-54
2023/04/24 08:27:51;;;;;;;7.95;4.97;;;;;;;29.50;14.46;99451.53;5071759;28;20391;-56
2023/04/24 08:30:18;;;;;;;6.07;4.45;;;;;;;32.66;13.05;99476.81;5096205;28;20104;-57
2023/04/24 08:32:44;;;;;;;6.78;4.70;;;;;;;34.58;11.85;99474.19;5077301;28;20075;-54
2023/04/24 08:35:10;;;;;;;6.15;4.95;;;;;;;34.51;11.62;99486.03;5044852;28;20075;-58
2023/04/24 08:37:36;;;;;;;7.22;4.75;;;;;;;34.96;11.45;99476.97;5079191;28;20047;-56
2023/04/24 08:40:12;;;;;;;5.55;4.35;;;;;;;33.88;11.82;99467.59;5083375;28;20124;-58
2023/04/24 08:42:39;;;;;;;9.30;4.53;;;;;;;31.71;13.11;99463.88;5088857;28;20041;-58
2023/04/24 08:45:06;;;;;;;6.10;4.70;;;;;;;31.23;13.27;99462.75;5093272;28;20085;-57
2023/04/24 08:47:33;;;;;;;8.93;4.82;;;;;;;30.92;13.70;99464.84;5085281;28;20078;-59
2023/04/24 08:49:59;;;;;;;10.85;4.68;;;;;;;32.18;12.86;99444.41;5084970;28;20054;-59
2023/04/24 08:52:28;;;;;;;8.70;4.72;;;;;;;33.11;12.39;99459.16;5068394;28;20134;-59
2023/04/24 08:54:55;;;;;;;4.80;4.28;;;;;;;33.82;12.12;99459.50;5072142;28;20535;-56
2023/04/24 08:57:21;;;;;;;5.93;4.75;;;;;;;34.89;11.48;99437.50;5087276;28;20047;-57
2023/04/24 08:59:47;;;;;;;6.82;4.60;;;;;;;36.38;10.63;99454.72;5097667;27;20044;-54
2023/04/24 09:02:14;;;;;;;8.23;5.10;;;;;;;35.32;11.35;99453.94;5080936;28;20059;-58
2023/04/24 09:04:40;;;;;;;8.05;4.82;;;;;;;36.21;10.79;99454.50;5068277;28;20128;-58
2023/04/24 09:07:07;;;;;;;6.13;4.63;;;;;;;35.85;11.10;99449.81;5083502;28;20044;-52
2023/04/24 09:09:34;;;;;;;12.90;4.97;;;;;;;35.23;11.08;99453.34;5076640;28;20149;-51
2023/04/24 09:12:01;;;;;;;5.10;4.57;;;;;;;35.87;10.68;99449.56;5090789;28;20109;-51
2023/04/24 09:14:28;;;;;;;5.05;4.55;;;;;;;34.53;11.31;99449.69;5052650;28;20042;-54
2023/04/24 09:16:54;;;;;;;10.95;4.70;;;;;;;32.49;12.59;99448.53;5069496;28;20093;-48
2023/04/24 09:19:21;;;;;;;6.93;4.50;;;;;;;31.51;12.92;99438.63;5101427;28;20044;-53
2023/04/24 09:21:47;;;;;;;8.20;4.97;;;;;;;32.99;12.42;99440.03;5084210;28;20525;-51
2023/04/24 09:24:22;;;;;;;8.45;4.28;;;;;;;35.51;11.10;99440.28;5052923;28;20127;-50
2023/04/24 09:26:57;;;;;;;5.35;4.43;;;;;;;37.93;10.34;99445.72;5086147;28;20396;-54
2023/04/24 09:29:23;;;;;;;11.38;4.93;;;;;;;39.19;9.21;99406.84;5069599;28;20035;-54
2023/04/24 09:31:49;;;;;;;4.60;4.13;;;;;;;40.28;9.25;99437.25;5084477;28;20458;-51
2023/04/24 09:34:18;;;;;;;5.82;4.88;;;;;;;41.21;8.71;99416.28;5095743;28;20028;-51
2023/04/24 09:36:44;;;;;;;7.13;4.78;;;;;;;42.39;8.33;99436.06;5063542;28;20087;-53
2023/04/24 09:39:15;;;;;;;14.80;5.18;;;;;;;42.66;7.70;99434.81;5095032;28;20500;-54
2023/04/24 09:41:54;;;;;;;8.07;4.82;;;;;;;41.21;8.03;99432.66;5063215;28;20038;-50
2023/04/24 09:44:21;;;;;;;10.20;5.15;;;;;;;38.48;9.05;99416.31;5070043;28;20086;-50
2023/04/24 09:46:53;;;;;;;10.07;4.75;;;;;;;37.82;9.44;99408.53;5098900;28;20046;-50
2023/04/24 09:49:27;;;;;;;8.90;4.88;;;;;;;38.11;9.42;99407.59;5080848;28;20182;-51
2023/04/24 09:52:03;;;;;;;6.05;4.70;;;;;;;37.74;9.54;99411.59;5076245;28;20040;-52
2023/04/24 09:54:29;;;;;;;7.27;4.73;;;;;;;37.53;9.95;99409.44;5092865;28;20108;-49
2023/04/24 09:56:55;;;;;;;4.63;4.00;;;;;;;37.10;9.78;99405.09;5096145;28;20047;-49
2023/04/24 09:59:21;;;;;;;6.00;4.35;;;;;;;35.36;10.59;99379.44;5112018;27;20626;-51
2023/04/24 10:01:49;;;;;;;4.75;4.25;;;;;;;34.08;11.40;99397.41;5099493;28;20472;-50
2023/04/24 10:04:26;;;;;;;8.07;4.55;;;;;;;35.72;10.55;99390.41;5097646;28;20531;-49
2023/04/24 10:06:54;;;;;;;8.25;4.43;;;;;;;36.79;9.97;99397.16;5073556;28;20563;-49
2023/04/24 10:09:22;;;;;;;7.35;4.30;;;;;;;34.69;10.86;99397.91;5108955;28;20465;-49
2023/04/24 10:11:49;;;;;;;;;;;;;;;31.63;12.38;99394.09;5071629;28;20081;-49
2023/04/24 10:14:17;;;;;;;5.70;4.40;;;;;;;32.40;12.14;99388.63;5105428;28;20040;-54
2023/04/24 10:16:43;;;;;;;;;;;;;;;34.72;11.23;99397.47;5112743;27;20073;-49
2023/04/24 10:19:10;;;;;;;5.80;4.03;;;;;;;34.27;11.16;99390.38;5098587;28;19928;-51
2023/04/24 10:21:42;;;;;;;8.82;4.38;;;;;;;32.23;12.40;99387.31;5099779;28;20035;-48
2023/04/24 10:24:12;;;;;;;8.02;4.57;;;;;;;32.61;12.26;99395.75;5095928;28;20035;-52
2023/04/24 10:26:39;;;;;;;6.38;4.25;;;;;;;33.11;11.62;99371.06;5085078;28;20410;-50
2023/04/24 10:29:09;;;;;;;6.78;4.30;;;;;;;33.76;11.36;99388.34;5080526;28;20032;-52
2023/04/24 10:31:37;;;;;;;5.75;4.50;;;;;;;35.20;11.07;99384.34;5083564;28;20464;-52
2023/04/24 10:34:04;;;;;;;9.15;4.40;;;;;;;37.28;9.66;99388.75;5076550;28;20620;-50
2023/04/24 10:36:32;;;;;;;7.20;4.53;;;;;;;36.02;10.27;99385.94;5061900;28;20511;-48
2023/04/24 10:38:59;;;;;;;5.53;4.32;;;;;;;35.79;10.16;99380.34;5095749;28;20040;-51
2023/04/24 10:41:26;;;;;;;7.05;4.30;;;;;;;37.08;9.93;99371.97;5074909;28;20134;-52
2023/04/24 10:44:11;;;;;;;5.68;4.40;;;;;;;38.99;9.22;99368.44;5103860;27;20579;-48
2023/04/24 10:46:38;;;;;;;4.10;3.70;;;;;;;40.36;8.60;99376.00;5093507;28;20036;-50
2023/04/24 10:49:06;;;;;;;7.03;4.30;;;;;;;39.27;8.79;99378.41;5115300;27;20127;-49
2023/04/24 10:51:49;;;;;;;6.88;4.50;;;;;;;38.48;9.14;99369.28;5078533;28;20055;-46
2023/04/24 10:54:35;;;;;;;4.97;4.20;;;;;;;38.27;9.23;99365.31;5091800;28;20063;-50
2023/04/24 10:57:29;;;;;;;5.50;4.00;;;;;;;36.91;9.41;99376.34;5071189;28;20040;-47
2023/04/24 11:00:19;;;;;;;6.07;4.10;;;;;;;37.15;9.24;99355.59;5049262;28;20542;-45
2023/04/24 11:02:52;;;;;;;5.85;4.07;;;;;;;35.92;9.84;99369.38;5051508;28;20170;-51
2023/04/24 11:05:20;;;;;;;6.05;4.00;;;;;;;35.54;10.26;99363.28;5084712;28;20470;-49
2023/04/24 11:08:15;;;;;;;6.85;4.22;;;;;;;35.35;10.28;99356.97;5079520;28;20032;-46
2023/04/24 11:10:56;;;;;;;4.78;3.85;;;;;;;35.96;9.91;99351.63;5089527;28;20050;-48
2023/04/24 11:13:24;;;;;;;5.60;4.18;;;;;;;35.16;10.11;99347.97;5071387;28;20082;-49
2023/04/24 11:16:12;;;;;;;5.18;4.15;;;;;;;36.11;10.35;99354.78;5054431;28;20043;-50
2023/04/24 11:18:40;;;;;;;5.70;4.13;;;;;;;38.58;9.01;99334.16;5070544;28;20454;-49
2023/04/24 11:21:18;;;;;;;5.72;4.35;;;;;;;37.83;9.30;99339.63;5071827;28;20040;-52
2023/04/24 11:23:47;;;;;;;6.18;4.05;;;;;;;38.07;9.19;99341.28;5088941;28;20385;-47
2023/04/24 11:26:32;;;;;;;4.93;4.35;;;;;;;39.53;8.47;99345.13;5105580;28;20526;-48
2023/04/24 11:29:07;;;;;;;7.90;4.63;;;;;;;36.76;9.73;99343.41;5054980;28;20040;-52
2023/04/24 11:31:38;;;;;;;6.30;4.53;;;;;;;36.35;9.86;99349.56;5051203;28;20512;-48
2023/04/24 11:34:12;;;;;;;11.75;4.32;;;;;;;36.26;10.03;99326.56;5069360;28;20071;-50